Portada
METAR-TAF:

METAR-TAF

Aeropuertos :

Liberal, Kansas, Estados Unidos

latitud: 37-03N, longitud: 100-58W, altitud: 879 m

Observación

El informe se hizo hace 36 minutos, a las 05:56 UTC
Viento 20 kt del sur-sureste
Temperatura 26°C
Humedad 54%
Presión 1011 hPa
Visibilidad: 16.1 km
Cielo despejado

METAR: KLBL 070556Z AUTO 16020KT 10SM CLR 26/16 A2985 RMK AO2 PK WND 16029/0520 SLP067 T02560156 10356 20256 51005

Hora: 01:32 (06:32 UTC)

Pronóstico

El informe se hizo hace 1 hora y 12 minutos, a las 05:20 UTC
Pronóstico válido del 07 a las 06 UTC al 08 a las 06 UTC
Viento 15 kt del sur-sureste
Visibilidad: 10 km
Nubes dispersas a una altura de 25000 ft
A partir de las 07 a las 1500 UTC
Viento 20 kt del sur con ráfagas de 30 kt
Visibilidad: 10 km
Escasas nubes a una altura de 25000 ft

TAF: KLBL 070520Z 0706/0806 16015KT P6SM SCT250 FM071500 18020G30KT P6SM FEW250

Observaciones y pronósticos meteorológicos de más de 4000 aeropuertos (mensajes METAR y TAF).

Los puntos amarillos y rojos representan las estaciones disponibles.

Ponga el ratón en el punto deseado para ver el nombre de la estación.

Haga clic para ver las observaciones y los pronósticos meteorológicos.

Para cambiar el mapa : haga clic en los botones verdes con una cruz de color negro para hacer un zoom, en el botón verde con un guión para alejar o en las flechas verdes para mapas adyacentes.


METAR-TAF: